Impacts TAF Board
For situational awareness. Not to be used for flight planning purposes.
IDs:

KCNM - Carlsbad/Cavern City, NM, US

Issued at 2215 UTC 01 Feb 2023
Updated at 2224 UTC 01 Feb 2023
Potential Impact None Slight Moderate High
Time2153Z 01/23Z 02/00Z 02/01Z 02/02Z 02/03Z 02/04Z 02/05Z 02/06Z 02/07Z 02/08Z 02/09Z 02/10Z 02/11Z>>
Type OBS PRVL PRVL PRVL PRVL PRVL PRVL PRVL PRVL PRVL PRVL PRVL PRVL PRVL
VIS 10 >6 >6 >6 >6 >6 >6 >6 >6 >6 >6 >6 >6 >6
CIG 42 40 40 40 40 40 40 40 40 40 40 9 9 9
Cover OVC OVC OVC OVC OVC OVC OVC OVC OVC OVC OVC OVC OVC OVC
FltCat VFR VFR VFR VFR VFR VFR VFR VFR VFR VFR VFR IFR IFR IFR
WX -- -- -- -- -- -- -- -- -- -- -- -- -- --
WDir 150 170 170 170 170 170 170 170 170 170 170 VRB VRB VRB
WSpd 4 5 5 5 5 5 5 5 5 5 5 4 4 4
WGst -- -- -- -- -- -- -- -- -- -- -- -- -- --
WSHgt -- -- -- -- -- -- -- -- -- -- -- -- -- --
WSDir -- -- -- -- -- -- -- -- -- -- -- -- -- --
WSSpd -- -- -- -- -- -- -- -- -- -- -- -- -- --
R03/21
XWnd -4 -4 -4 -4 -4 -4 -4 -4 -4 -4 -4 VRB VRB VRB
HWnd -1 -3 -3 -3 -3 -3 -3 -3 -3 -3 -3 VRB VRB VRB
R08/26
XWnd -3 -5 -5 -5 -5 -5 -5 -5 -5 -5 -5 VRB VRB VRB
HWnd 2 1 1 1 1 1 1 1 1 1 1 VRB VRB VRB
R14L/32
XWnd 0 -1 -1 -1 -1 -1 -1 -1 -1 -1 -1 VRB VRB VRB
HWnd 4 5 5 5 5 5 5 5 5 5 5 VRB VRB VRB
R14R/32
XWnd 0 -1 -1 -1 -1 -1 -1 -1 -1 -1 -1 VRB VRB VRB
HWnd 4 5 5 5 5 5 5 5 5 5 5 VRB VRB VRB

NOTE: LAMP data beyond the time of the TAF data is denoted as LAMP in Type and colored magenta.

Raw TAF
KCNM 012215Z 0122/0218 17005KT P6SM SCT017 OVC040
  FM020900 VRB04KT P6SM OVC009


Raw METAR
KCNM 012153Z AUTO 15004KT 10SM BKN042 OVC050 M01/M05 A3014 RMK AO2 SLP213 T10061050
KCNM 012111Z AUTO 15005KT 10SM FEW027 BKN032 OVC050 M01/M05 A3015 RMK AO2 T10061050
KCNM 012053Z AUTO VRB06KT 10SM FEW019 OVC027 M01/M05 A3016 RMK AO2 SLP220 T10061050 56045
KCNM 011953Z AUTO 17005KT 10SM SCT017 OVC028 M01/M05 A3019 RMK AO2 SLP235 T10111050

METAR Board
Radar Display
Forecast Discussion

For situational awareness. Not to be used for flight planning purposes.